createdAt,value
2022-07-27T01:45:33.647Z,19.81
2022-07-27T01:48:01.267Z,19.62
2022-07-27T01:50:28.636Z,19.59
2022-07-27T01:52:56.118Z,19.53
2022-07-27T01:55:23.723Z,19.67
2022-07-27T01:57:51.112Z,19.68
2022-07-27T02:00:18.642Z,19.69
2022-07-27T02:02:46.085Z,19.83
2022-07-27T02:05:13.793Z,19.65
2022-07-27T02:07:42.308Z,19.59
2022-07-27T02:10:09.764Z,19.48
2022-07-27T02:12:38.083Z,19.71
2022-07-27T02:15:15.047Z,19.59
2022-07-27T02:17:46.495Z,19.59
2022-07-27T02:20:15.134Z,19.59
2022-07-27T02:22:42.699Z,19.39
2022-07-27T02:25:10.584Z,19.44
2022-07-27T02:27:39.452Z,19.40
2022-07-27T02:30:07.306Z,19.42
2022-07-27T02:32:35.087Z,19.31
2022-07-27T02:35:02.695Z,19.20
2022-07-27T02:37:47.383Z,19.31
2022-07-27T02:40:17.752Z,19.34
2022-07-27T02:42:45.821Z,19.33
2022-07-27T02:45:14.316Z,19.21
2022-07-27T02:47:42.455Z,19.43
2022-07-27T02:50:10.133Z,19.40
2022-07-27T02:52:37.757Z,19.41
2022-07-27T02:55:05.593Z,19.49
2022-07-27T02:57:36.093Z,19.51
2022-07-27T03:00:05.553Z,19.52
2022-07-27T03:02:33.113Z,19.67
2022-07-27T03:05:00.548Z,19.53
2022-07-27T03:07:27.967Z,19.26
2022-07-27T03:09:56.079Z,19.15
2022-07-27T03:12:23.598Z,19.43
2022-07-27T03:14:51.243Z,19.53
2022-07-27T03:17:18.668Z,19.56
2022-07-27T03:19:46.709Z,19.58
2022-07-27T03:22:15.642Z,19.54
2022-07-27T03:24:43.294Z,19.56
2022-07-27T03:27:10.648Z,19.72
2022-07-27T03:29:41.790Z,19.59
2022-07-27T03:32:09.207Z,19.64
2022-07-27T03:34:36.636Z,19.59
2022-07-27T03:37:05.189Z,19.81
2022-07-27T03:39:32.855Z,19.82
2022-07-27T03:42:00.475Z,19.87
2022-07-27T03:44:27.920Z,19.87
2022-07-27T03:46:55.329Z,19.88
2022-07-27T03:49:22.794Z,19.89
2022-07-27T03:51:50.400Z,19.88
2022-07-27T03:54:20.558Z,19.85
2022-07-27T03:56:48.028Z,19.83
2022-07-27T03:59:15.864Z,19.92
2022-07-27T04:01:43.626Z,19.87
2022-07-27T04:04:11.131Z,19.92
2022-07-27T04:06:39.132Z,19.77
2022-07-27T04:09:08.297Z,19.98
2022-07-27T04:11:43.368Z,20.11
2022-07-27T04:14:17.924Z,20.07
2022-07-27T04:16:47.193Z,20.10
2022-07-27T04:19:15.193Z,20.09
2022-07-27T04:21:43.306Z,20.31
2022-07-27T04:24:10.692Z,20.45
2022-07-27T04:26:38.895Z,20.50
2022-07-27T04:29:06.451Z,20.60
2022-07-27T04:31:33.927Z,20.71
2022-07-27T04:34:01.553Z,20.55
2022-07-27T04:36:32.378Z,20.78
2022-07-27T04:39:00.008Z,20.63
2022-07-27T04:41:30.459Z,20.70
2022-07-27T04:43:59.044Z,20.77
2022-07-27T04:46:28.256Z,20.94
2022-07-27T04:48:55.820Z,20.94
2022-07-27T04:51:23.406Z,20.98
2022-07-27T04:53:52.413Z,21.11
2022-07-27T04:56:26.771Z,21.12
2022-07-27T04:58:54.844Z,21.32
2022-07-27T05:01:28.260Z,21.34
2022-07-27T05:03:57.962Z,21.52
2022-07-27T05:06:25.834Z,21.63
2022-07-27T05:08:53.358Z,21.63
2022-07-27T05:11:20.985Z,21.86
2022-07-27T05:13:48.600Z,21.54
2022-07-27T05:16:16.327Z,21.77
2022-07-27T05:18:47.924Z,21.79
2022-07-27T05:21:15.717Z,22.11
2022-07-27T05:23:43.174Z,22.28
2022-07-27T05:26:13.326Z,22.20
2022-07-27T05:28:41.016Z,22.12
2022-07-27T05:31:08.520Z,22.19
2022-07-27T05:33:37.281Z,22.34
2022-07-27T05:36:07.812Z,22.44
2022-07-27T05:38:39.513Z,22.56
2022-07-27T05:41:07.449Z,22.44
2022-07-27T05:43:35.164Z,22.20
2022-07-27T05:46:02.611Z,22.36
2022-07-27T05:48:30.198Z,22.50
2022-07-27T05:50:57.771Z,22.63
2022-07-27T05:53:25.707Z,22.74
2022-07-27T05:55:59.177Z,22.55
2022-07-27T05:58:30.331Z,22.59
2022-07-27T06:00:57.930Z,22.81
2022-07-27T06:03:25.631Z,22.47
2022-07-27T06:06:13.090Z,22.61
2022-07-27T06:08:41.558Z,22.87
2022-07-27T06:11:09.339Z,22.90
2022-07-27T06:13:42.271Z,22.95
2022-07-27T06:16:11.924Z,23.07
2022-07-27T06:18:39.850Z,23.04
2022-07-27T06:21:07.358Z,23.18
2022-07-27T06:23:35.072Z,23.32
2022-07-27T06:26:02.574Z,23.23
2022-07-27T06:28:31.145Z,23.26
2022-07-27T06:30:58.904Z,23.47
2022-07-27T06:33:29.469Z,23.71
2022-07-27T06:35:57.389Z,23.91
2022-07-27T06:38:26.023Z,23.89
2022-07-27T06:40:53.760Z,23.87
2022-07-27T06:43:28.662Z,23.90
2022-07-27T06:45:56.422Z,23.87
2022-07-27T06:48:23.957Z,23.99
2022-07-27T06:50:52.567Z,24.04
2022-07-27T06:53:21.366Z,24.28
2022-07-27T06:55:49.746Z,24.32
2022-07-27T06:58:17.364Z,24.46
2022-07-27T07:00:44.923Z,24.50
2022-07-27T07:03:12.500Z,24.53
2022-07-27T07:05:45.267Z,24.65
2022-07-27T07:08:13.722Z,24.69
2022-07-27T07:10:41.786Z,24.76
2022-07-27T07:13:12.301Z,24.77
2022-07-27T07:15:40.060Z,25.08
2022-07-27T07:18:09.353Z,25.98
2022-07-27T07:20:36.872Z,26.79
2022-07-27T07:23:04.639Z,28.01
2022-07-27T07:25:32.701Z,29.34
2022-07-27T07:28:00.361Z,30.94
2022-07-27T07:30:28.183Z,31.88
2022-07-27T07:32:57.215Z,32.88
2022-07-27T07:35:24.845Z,33.58
2022-07-27T07:37:52.639Z,34.32
2022-07-27T07:43:07.677Z,36.49
2022-07-27T07:45:38.200Z,37.16
2022-07-27T07:48:14.871Z,37.62
2022-07-27T07:50:42.271Z,37.93
2022-07-27T07:53:09.793Z,38.49
2022-07-27T07:55:38.791Z,39.20
2022-07-27T07:58:07.125Z,38.38
2022-07-27T08:00:34.772Z,38.91
2022-07-27T08:03:02.321Z,38.72
2022-07-27T08:05:31.760Z,38.67
2022-07-27T08:07:59.717Z,38.67
2022-07-27T08:10:28.334Z,38.40
2022-07-27T08:12:56.492Z,37.27
2022-07-27T08:15:29.972Z,37.54
2022-07-27T08:18:05.272Z,38.13
2022-07-27T08:20:33.232Z,37.62
2022-07-27T08:23:00.781Z,36.98
2022-07-27T08:25:28.522Z,38.09
2022-07-27T08:27:56.359Z,38.35
2022-07-27T08:30:24.052Z,37.67
2022-07-27T08:32:58.581Z,38.76
2022-07-27T08:35:29.308Z,39.21
2022-07-27T08:37:56.997Z,38.56
2022-07-27T08:40:43.486Z,37.68
2022-07-27T08:43:12.188Z,38.13
2022-07-27T08:45:42.006Z,38.62
2022-07-27T08:48:12.199Z,38.86
2022-07-27T08:50:39.686Z,38.63
2022-07-27T08:53:08.598Z,37.68
2022-07-27T08:55:36.870Z,37.30
2022-07-27T08:58:04.523Z,37.38
2022-07-27T09:00:34.557Z,37.25
2022-07-27T09:03:02.175Z,38.07
2022-07-27T09:05:37.421Z,38.27
2022-07-27T09:08:15.185Z,38.30
2022-07-27T09:10:42.709Z,38.29
2022-07-27T09:13:18.735Z,38.28
2022-07-27T09:16:15.882Z,38.44
2022-07-27T09:18:37.729Z,38.15
2022-07-27T09:21:12.849Z,38.26
2022-07-27T09:23:41.198Z,37.97
2022-07-27T09:26:21.703Z,37.91
2022-07-27T09:28:58.004Z,37.12
2022-07-27T09:31:25.536Z,36.93
2022-07-27T09:33:53.999Z,36.66
2022-07-27T09:36:22.956Z,36.09
2022-07-27T09:38:54.343Z,35.40
2022-07-27T09:41:23.941Z,35.41
2022-07-27T09:46:44.218Z,35.56
2022-07-27T09:49:29.450Z,35.23
2022-07-27T09:52:00.085Z,35.18
2022-07-27T09:54:30.921Z,34.70
2022-07-27T09:57:01.605Z,34.21
2022-07-27T09:59:29.594Z,34.29
2022-07-27T10:01:57.150Z,35.01
2022-07-27T10:04:25.742Z,35.13
2022-07-27T10:07:02.769Z,35.06
2022-07-27T10:09:33.532Z,34.48
2022-07-27T10:12:01.941Z,34.53
2022-07-27T10:14:29.594Z,34.50
2022-07-27T10:16:58.453Z,34.43
2022-07-27T10:19:55.409Z,34.00
2022-07-27T10:22:41.715Z,34.12
2022-07-27T10:25:09.338Z,34.07
2022-07-27T10:27:36.819Z,33.87
2022-07-27T10:30:04.378Z,34.08
2022-07-27T10:32:32.242Z,34.03
2022-07-27T10:35:01.565Z,34.03
2022-07-27T10:37:29.425Z,34.36
2022-07-27T10:40:16.258Z,34.33
2022-07-27T10:42:51.927Z,34.39
2022-07-27T10:45:21.575Z,34.20
2022-07-27T10:47:50.528Z,33.66
2022-07-27T10:50:23.851Z,32.68
2022-07-27T10:52:57.878Z,33.20
2022-07-27T10:55:31.604Z,33.54
2022-07-27T10:58:19.998Z,33.75
2022-07-27T11:00:53.148Z,34.17
2022-07-27T11:03:22.211Z,33.81
2022-07-27T11:06:04.768Z,34.14
2022-07-27T11:08:47.716Z,33.83
2022-07-27T11:11:20.078Z,34.28
2022-07-27T11:13:55.406Z,33.97
2022-07-27T11:16:24.734Z,33.96
2022-07-27T11:18:57.564Z,33.85
2022-07-27T11:21:26.926Z,34.18
2022-07-27T11:23:56.065Z,34.37
2022-07-27T11:26:23.931Z,34.28
2022-07-27T11:28:51.609Z,33.96
2022-07-27T11:31:38.361Z,34.27
2022-07-27T11:34:06.914Z,34.61
2022-07-27T11:36:40.047Z,34.05
2022-07-27T11:39:14.576Z,34.12
2022-07-27T11:42:08.096Z,34.40
2022-07-27T11:44:30.274Z,34.15
2022-07-27T11:47:01.694Z,34.47
2022-07-27T11:49:31.708Z,34.36
2022-07-27T11:52:00.123Z,34.21
2022-07-27T11:54:28.272Z,34.17
2022-07-27T11:56:57.287Z,34.87
2022-07-27T11:59:25.462Z,35.13
2022-07-27T12:01:53.663Z,34.63
2022-07-27T12:04:23.192Z,34.23
2022-07-27T12:07:15.431Z,34.32
2022-07-27T12:09:45.373Z,34.50
2022-07-27T12:12:17.191Z,34.07
2022-07-27T12:14:51.072Z,34.02
2022-07-27T12:17:20.513Z,34.40
2022-07-27T12:20:11.745Z,34.35
2022-07-27T12:23:07.057Z,34.50
2022-07-27T12:25:44.179Z,33.74
2022-07-27T12:28:22.522Z,32.78
2022-07-27T12:30:58.815Z,32.37
2022-07-27T12:34:06.953Z,33.23
2022-07-27T12:37:14.096Z,32.89
2022-07-27T12:39:46.565Z,32.96
2022-07-27T12:43:04.621Z,33.37
2022-07-27T12:45:38.249Z,32.76
2022-07-27T12:48:32.722Z,32.09
2022-07-27T12:51:04.459Z,32.14
2022-07-27T12:53:40.041Z,31.73
2022-07-27T12:56:08.372Z,31.98
2022-07-27T12:58:37.867Z,31.98
2022-07-27T13:04:01.230Z,31.67
2022-07-27T13:06:31.917Z,31.65
2022-07-27T13:08:59.365Z,31.61
2022-07-27T13:11:26.922Z,31.84
2022-07-27T15:29:59.309Z,33.58
2022-07-27T15:32:29.738Z,33.71
2022-07-27T15:34:57.448Z,33.66
2022-07-27T15:37:25.324Z,33.67
2022-07-27T15:39:52.969Z,34.06
2022-07-27T15:42:21.796Z,33.85
2022-07-27T15:44:50.090Z,33.36
2022-07-27T15:47:17.613Z,33.49
2022-07-27T15:49:45.370Z,33.38
2022-07-27T15:52:12.776Z,33.19
2022-07-27T15:54:45.397Z,33.09
2022-07-27T15:57:13.187Z,32.86
2022-07-27T15:59:40.548Z,32.72
2022-07-27T16:02:08.291Z,32.60
2022-07-27T16:04:36.880Z,32.55
2022-07-27T16:07:04.283Z,32.33
2022-07-27T16:09:31.968Z,32.18
2022-07-27T16:11:59.622Z,31.88
2022-07-27T16:14:28.501Z,31.92
2022-07-27T16:16:56.032Z,31.83
2022-07-27T16:19:24.446Z,32.24
2022-07-27T16:21:54.925Z,32.08
2022-07-27T16:24:24.723Z,32.20
2022-07-27T16:26:52.162Z,32.14
2022-07-27T16:29:19.691Z,32.03
2022-07-27T16:31:47.109Z,32.08
2022-07-27T16:34:14.640Z,32.02
2022-07-27T16:36:42.480Z,31.95
2022-07-27T16:39:10.234Z,32.03
2022-07-27T16:41:37.891Z,31.97
2022-07-27T16:44:05.541Z,31.87
2022-07-27T16:46:32.943Z,30.91
2022-07-27T16:49:00.625Z,30.43
2022-07-27T16:51:28.059Z,30.17
2022-07-27T16:53:55.437Z,29.91
2022-07-27T16:56:23.033Z,29.60
2022-07-27T16:58:50.595Z,29.47
2022-07-27T17:01:21.952Z,29.45
2022-07-27T17:03:54.847Z,29.38
2022-07-27T17:06:22.412Z,29.17
2022-07-27T17:08:52.277Z,29.15
2022-07-27T17:11:21.487Z,29.05
2022-07-27T17:13:50.458Z,29.00
2022-07-27T17:16:18.560Z,28.96
2022-07-27T17:18:50.709Z,28.76
2022-07-27T17:21:18.710Z,28.76
2022-07-27T17:23:46.379Z,28.56
2022-07-27T17:26:14.154Z,28.56
2022-07-27T17:28:42.431Z,28.58
2022-07-27T17:31:10.797Z,28.51
2022-07-27T17:33:38.866Z,28.43
2022-07-27T17:36:14.656Z,28.26
2022-07-27T17:38:45.660Z,28.35
2022-07-27T17:41:13.262Z,28.21
2022-07-27T17:43:43.217Z,28.06
2022-07-27T17:46:11.108Z,27.98
2022-07-27T17:48:38.869Z,27.93
2022-07-27T17:51:06.828Z,27.93
2022-07-27T17:53:34.360Z,27.96
2022-07-27T17:56:02.922Z,28.01
2022-07-27T17:58:30.821Z,27.80
2022-07-27T18:00:58.855Z,27.67
2022-07-27T18:03:26.690Z,27.64
2022-07-27T18:05:54.238Z,27.49
2022-07-27T18:08:21.767Z,27.34
2022-07-27T18:10:51.592Z,27.40
2022-07-27T18:13:19.155Z,27.45
2022-07-27T18:15:48.446Z,27.24
2022-07-27T18:18:18.340Z,27.06
2022-07-27T18:20:47.859Z,27.03
2022-07-27T18:23:15.472Z,27.12
2022-07-27T18:25:43.738Z,27.12
2022-07-27T18:28:11.540Z,27.05
2022-07-27T18:30:39.029Z,26.74
2022-07-27T18:33:06.913Z,26.71
2022-07-27T18:35:34.253Z,26.69
2022-07-27T18:38:02.240Z,26.66
2022-07-27T18:40:29.974Z,26.67
2022-07-27T18:42:57.447Z,26.49
2022-07-27T18:45:34.214Z,26.57
2022-07-27T18:48:03.040Z,26.67
2022-07-27T18:50:33.353Z,26.50
2022-07-27T18:53:03.310Z,26.46
2022-07-27T18:55:30.836Z,26.08
2022-07-27T18:57:58.966Z,25.97
2022-07-27T19:00:26.921Z,26.14
2022-07-27T19:02:57.948Z,26.00
2022-07-27T19:05:40.607Z,25.91
2022-07-27T19:08:13.418Z,25.84
2022-07-27T19:10:42.784Z,25.65
2022-07-27T19:13:11.022Z,25.60
2022-07-27T19:15:38.680Z,25.79
2022-07-27T19:18:06.374Z,25.68
2022-07-27T19:20:36.772Z,25.67
2022-07-27T19:23:05.141Z,25.36
2022-07-27T19:25:34.045Z,25.38
2022-07-27T19:28:02.454Z,25.47
2022-07-27T19:30:30.224Z,25.53
2022-07-27T19:32:57.724Z,25.38
2022-07-27T19:35:25.381Z,25.51
2022-07-27T19:37:53.337Z,25.37
2022-07-27T19:40:43.607Z,25.34
2022-07-27T19:43:08.431Z,25.25
2022-07-27T19:45:37.287Z,25.36
2022-07-27T19:48:05.779Z,25.23
2022-07-27T19:50:34.682Z,25.21
2022-07-27T19:53:02.265Z,25.21
2022-07-27T19:55:29.709Z,25.10
2022-07-27T19:57:57.127Z,25.10
2022-07-27T20:00:24.864Z,25.10
2022-07-27T20:02:53.463Z,25.07
2022-07-27T20:05:21.707Z,25.00
2022-07-27T20:07:49.263Z,24.86
2022-07-27T20:10:16.891Z,24.88
2022-07-27T20:12:44.451Z,24.76
2022-07-27T20:15:12.143Z,24.72
2022-07-27T20:17:42.431Z,24.76
2022-07-27T20:20:10.821Z,24.90
2022-07-27T20:22:41.491Z,24.56
2022-07-27T20:25:10.791Z,24.49
2022-07-27T20:27:38.342Z,24.58
2022-07-27T20:30:05.940Z,24.74
2022-07-27T20:32:33.466Z,24.83
2022-07-27T20:35:01.407Z,24.72
2022-07-27T20:37:28.922Z,24.67
2022-07-27T20:39:56.368Z,24.58
2022-07-27T20:42:23.965Z,24.33
2022-07-27T20:44:51.340Z,24.26
2022-07-27T20:47:19.094Z,24.29
2022-07-27T20:49:47.133Z,24.32
2022-07-27T20:52:14.605Z,24.54
2022-07-27T20:54:42.065Z,24.46
2022-07-27T20:57:09.441Z,24.49
2022-07-27T20:59:37.052Z,24.47
2022-07-27T21:02:04.768Z,24.45
2022-07-27T21:04:32.286Z,24.41
2022-07-27T21:06:59.951Z,24.16
2022-07-27T21:09:27.363Z,24.23
2022-07-27T21:11:54.864Z,24.16
2022-07-27T21:14:23.865Z,24.17
2022-07-27T21:16:52.832Z,24.43
2022-07-27T21:19:21.112Z,24.13
2022-07-27T21:21:49.508Z,24.14
2022-07-27T21:24:18.439Z,24.26
2022-07-27T21:26:48.502Z,24.07
2022-07-27T21:29:17.539Z,23.92
2022-07-27T21:31:46.912Z,23.84
2022-07-27T21:34:17.477Z,23.92
2022-07-27T21:36:45.197Z,24.02
2022-07-27T21:39:12.715Z,23.96
2022-07-27T21:41:40.206Z,23.87
2022-07-27T21:44:07.697Z,23.73
2022-07-27T21:46:35.119Z,23.62
2022-07-27T21:49:02.629Z,23.69
2022-07-27T21:51:30.927Z,23.47
2022-07-27T21:53:58.421Z,23.24
2022-07-27T21:56:25.934Z,23.34
2022-07-27T21:58:53.293Z,23.64
2022-07-27T22:01:21.289Z,23.50
2022-07-27T22:03:48.790Z,23.61
2022-07-27T22:06:16.276Z,23.58
2022-07-27T22:08:46.253Z,23.56
2022-07-27T22:11:13.797Z,23.46
2022-07-27T22:13:41.193Z,23.37
2022-07-27T22:16:09.315Z,23.33
2022-07-27T22:18:36.847Z,23.40
2022-07-27T22:21:04.371Z,23.48
2022-07-27T22:23:31.872Z,23.39
2022-07-27T22:25:59.273Z,23.28
2022-07-27T22:28:26.868Z,23.20
2022-07-27T22:31:00.001Z,23.22
2022-07-27T22:33:44.487Z,23.51
2022-07-27T22:36:12.321Z,23.59
2022-07-27T22:38:39.859Z,23.67
2022-07-27T22:41:07.513Z,23.41
2022-07-27T22:43:35.283Z,23.45
2022-07-27T22:46:03.487Z,23.19
2022-07-27T22:48:31.066Z,23.46
2022-07-27T22:50:58.877Z,23.22
2022-07-27T22:53:26.327Z,23.02
2022-07-27T22:55:54.104Z,22.92
2022-07-27T22:58:21.946Z,23.02
2022-07-27T23:00:49.506Z,23.05
2022-07-27T23:03:16.925Z,22.85
2022-07-27T23:05:45.048Z,22.77
2022-07-27T23:08:12.441Z,22.73
2022-07-27T23:10:47.933Z,22.78
2022-07-27T23:13:15.867Z,22.78
2022-07-27T23:15:43.641Z,22.83
2022-07-27T23:18:12.121Z,22.93
2022-07-27T23:20:40.560Z,23.19
2022-07-27T23:23:15.432Z,23.27
2022-07-27T23:25:47.693Z,23.34
2022-07-27T23:28:15.209Z,23.18
2022-07-27T23:30:42.731Z,23.23
2022-07-27T23:33:11.334Z,23.28
2022-07-27T23:35:38.977Z,23.17
2022-07-27T23:38:06.669Z,22.79
2022-07-27T23:40:34.181Z,22.64
2022-07-27T23:43:01.738Z,22.75
2022-07-27T23:45:29.274Z,22.67
2022-07-27T23:47:57.080Z,22.72
2022-07-27T23:50:24.546Z,22.71
2022-07-27T23:52:52.069Z,22.64
2022-07-27T23:55:19.622Z,22.60
2022-07-27T23:57:47.209Z,22.61
